sensor_id;sensor_type;location;lat;lon;timestamp;P1;durP1;ratioP1;P2;durP2;ratioP2
18114;SDS011;9184;54.390;18.620;2023-03-29T00:00:14;9.43;;;4.25;;
18114;SDS011;9184;54.390;18.620;2023-03-29T00:00:47;8.75;;;4.28;;
18114;SDS011;9184;54.390;18.620;2023-03-29T00:01:25;7.63;;;4.03;;
18114;SDS011;9184;54.390;18.620;2023-03-29T00:02:00;10.23;;;4.07;;
18114;SDS011;9184;54.390;18.620;2023-03-29T00:02:31;11.23;;;4.23;;
18114;SDS011;9184;54.390;18.620;2023-03-29T00:03:02;11.13;;;5.37;;
18114;SDS011;9184;54.390;18.620;2023-03-29T00:03:43;11.73;;;4.35;;
18114;SDS011;9184;54.390;18.620;2023-03-29T00:04:14;8.98;;;4.15;;
18114;SDS011;9184;54.390;18.620;2023-03-29T00:04:48;11.18;;;4.88;;
18114;SDS011;9184;54.390;18.620;2023-03-29T00:05:22;6.50;;;4.47;;
18114;SDS011;9184;54.390;18.620;2023-03-29T00:05:57;9.88;;;3.97;;
18114;SDS011;9184;54.390;18.620;2023-03-29T00:06:32;11.45;;;4.20;;
18114;SDS011;9184;54.390;18.620;2023-03-29T00:07:03;11.85;;;5.00;;
18114;SDS011;9184;54.390;18.620;2023-03-29T00:07:34;11.23;;;4.60;;
18114;SDS011;9184;54.390;18.620;2023-03-29T00:08:04;12.13;;;4.63;;
18114;SDS011;9184;54.390;18.620;2023-03-29T00:08:36;7.90;;;4.68;;
18114;SDS011;9184;54.390;18.620;2023-03-29T00:09:07;7.50;;;4.00;;
18114;SDS011;9184;54.390;18.620;2023-03-29T00:09:39;14.35;;;5.15;;
18114;SDS011;9184;54.390;18.620;2023-03-29T00:10:11;8.07;;;3.85;;
18114;SDS011;9184;54.390;18.620;2023-03-29T00:10:42;8.30;;;5.03;;
18114;SDS011;9184;54.390;18.620;2023-03-29T00:11:12;8.63;;;4.60;;
18114;SDS011;9184;54.390;18.620;2023-03-29T00:11:44;8.70;;;4.10;;
18114;SDS011;9184;54.390;18.620;2023-03-29T00:12:14;13.77;;;4.80;;
18114;SDS011;9184;54.390;18.620;2023-03-29T00:12:45;8.67;;;4.63;;
18114;SDS011;9184;54.390;18.620;2023-03-29T00:13:18;9.63;;;4.28;;
18114;SDS011;9184;54.390;18.620;2023-03-29T00:13:48;14.65;;;5.50;;
18114;SDS011;9184;54.390;18.620;2023-03-29T00:14:19;9.43;;;4.40;;
18114;SDS011;9184;54.390;18.620;2023-03-29T00:14:51;11.82;;;4.40;;
18114;SDS011;9184;54.390;18.620;2023-03-29T00:15:21;8.30;;;4.47;;
18114;SDS011;9184;54.390;18.620;2023-03-29T00:15:52;8.47;;;4.43;;
18114;SDS011;9184;54.390;18.620;2023-03-29T00:16:23;7.63;;;4.35;;
18114;SDS011;9184;54.390;18.620;2023-03-29T00:16:54;6.83;;;3.73;;
18114;SDS011;9184;54.390;18.620;2023-03-29T00:17:24;8.00;;;3.77;;
18114;SDS011;9184;54.390;18.620;2023-03-29T00:17:56;6.63;;;4.07;;
18114;SDS011;9184;54.390;18.620;2023-03-29T00:18:27;7.27;;;4.10;;
18114;SDS011;9184;54.390;18.620;2023-03-29T00:18:57;7.00;;;4.07;;
18114;SDS011;9184;54.390;18.620;2023-03-29T00:19:29;8.82;;;4.20;;
18114;SDS011;9184;54.390;18.620;2023-03-29T00:20:05;12.00;;;4.40;;
18114;SDS011;9184;54.390;18.620;2023-03-29T00:20:36;9.63;;;4.57;;
18114;SDS011;9184;54.390;18.620;2023-03-29T00:21:07;10.25;;;4.25;;
18114;SDS011;9184;54.390;18.620;2023-03-29T00:21:38;10.17;;;4.57;;
18114;SDS011;9184;54.390;18.620;2023-03-29T00:22:08;8.40;;;4.27;;
18114;SDS011;9184;54.390;18.620;2023-03-29T00:22:40;7.03;;;4.22;;
18114;SDS011;9184;54.390;18.620;2023-03-29T00:23:11;7.27;;;4.03;;
18114;SDS011;9184;54.390;18.620;2023-03-29T00:23:41;8.87;;;4.20;;
18114;SDS011;9184;54.390;18.620;2023-03-29T00:24:13;7.72;;;3.97;;
18114;SDS011;9184;54.390;18.620;2023-03-29T00:24:43;10.33;;;4.67;;
18114;SDS011;9184;54.390;18.620;2023-03-29T00:25:16;7.35;;;4.43;;
18114;SDS011;9184;54.390;18.620;2023-03-29T00:25:47;11.57;;;4.43;;
18114;SDS011;9184;54.390;18.620;2023-03-29T00:26:18;10.73;;;4.47;;
18114;SDS011;9184;54.390;18.620;2023-03-29T00:26:49;12.93;;;4.83;;
18114;SDS011;9184;54.390;18.620;2023-03-29T00:27:21;12.52;;;4.45;;
18114;SDS011;9184;54.390;18.620;2023-03-29T00:27:51;10.33;;;4.97;;
18114;SDS011;9184;54.390;18.620;2023-03-29T00:28:23;10.57;;;4.47;;
18114;SDS011;9184;54.390;18.620;2023-03-29T00:28:54;7.50;;;4.20;;
18114;SDS011;9184;54.390;18.620;2023-03-29T00:29:26;8.68;;;4.40;;
18114;SDS011;9184;54.390;18.620;2023-03-29T00:29:56;9.30;;;4.03;;
18114;SDS011;9184;54.390;18.620;2023-03-29T00:30:27;10.73;;;4.90;;
18114;SDS011;9184;54.390;18.620;2023-03-29T00:31:03;8.82;;;4.13;;
18114;SDS011;9184;54.390;18.620;2023-03-29T00:31:33;8.25;;;4.15;;
18114;SDS011;9184;54.390;18.620;2023-03-29T00:32:04;12.03;;;4.20;;
18114;SDS011;9184;54.390;18.620;2023-03-29T00:32:36;9.15;;;4.13;;
18114;SDS011;9184;54.390;18.620;2023-03-29T00:33:06;9.10;;;4.63;;
18114;SDS011;9184;54.390;18.620;2023-03-29T00:33:37;10.00;;;4.43;;
18114;SDS011;9184;54.390;18.620;2023-03-29T00:34:09;7.22;;;4.03;;
18114;SDS011;9184;54.390;18.620;2023-03-29T00:34:40;11.80;;;4.17;;
18114;SDS011;9184;54.390;18.620;2023-03-29T00:35:11;9.38;;;4.35;;
18114;SDS011;9184;54.390;18.620;2023-03-29T00:35:43;8.25;;;4.20;;
18114;SDS011;9184;54.390;18.620;2023-03-29T00:36:13;12.50;;;4.83;;
18114;SDS011;9184;54.390;18.620;2023-03-29T00:36:45;12.23;;;4.30;;
18114;SDS011;9184;54.390;18.620;2023-03-29T00:37:19;9.80;;;4.78;;
18114;SDS011;9184;54.390;18.620;2023-03-29T00:37:50;10.63;;;4.40;;
18114;SDS011;9184;54.390;18.620;2023-03-29T00:38:22;10.50;;;4.60;;
18114;SDS011;9184;54.390;18.620;2023-03-29T00:38:54;8.57;;;4.50;;
18114;SDS011;9184;54.390;18.620;2023-03-29T00:39:25;8.60;;;4.80;;
18114;SDS011;9184;54.390;18.620;2023-03-29T00:39:57;7.32;;;3.97;;
18114;SDS011;9184;54.390;18.620;2023-03-29T00:40:27;7.50;;;3.90;;
18114;SDS011;9184;54.390;18.620;2023-03-29T00:40:58;11.60;;;4.07;;
18114;SDS011;9184;54.390;18.620;2023-03-29T00:41:29;12.18;;;5.03;;
18114;SDS011;9184;54.390;18.620;2023-03-29T00:42:00;9.30;;;4.73;;
18114;SDS011;9184;54.390;18.620;2023-03-29T00:42:30;8.10;;;4.37;;
18114;SDS011;9184;54.390;18.620;2023-03-29T00:43:02;10.68;;;4.10;;
18114;SDS011;9184;54.390;18.620;2023-03-29T00:45:57;7.38;;;4.05;;
18114;SDS011;9184;54.390;18.620;2023-03-29T00:46:29;8.25;;;4.57;;
18114;SDS011;9184;54.390;18.620;2023-03-29T00:46:59;9.65;;;4.43;;
18114;SDS011;9184;54.390;18.620;2023-03-29T00:47:31;8.87;;;3.67;;
18114;SDS011;9184;54.390;18.620;2023-03-29T00:48:05;8.63;;;4.47;;
18114;SDS011;9184;54.390;18.620;2023-03-29T00:48:36;11.40;;;5.10;;
18114;SDS011;9184;54.390;18.620;2023-03-29T00:49:08;12.13;;;5.03;;
18114;SDS011;9184;54.390;18.620;2023-03-29T00:49:42;6.30;;;4.32;;
18114;SDS011;9184;54.390;18.620;2023-03-29T00:50:16;6.68;;;3.92;;
18114;SDS011;9184;54.390;18.620;2023-03-29T00:50:48;8.68;;;4.30;;
18114;SDS011;9184;54.390;18.620;2023-03-29T00:51:21;6.00;;;3.80;;
18114;SDS011;9184;54.390;18.620;2023-03-29T00:51:53;8.93;;;4.68;;
18114;SDS011;9184;54.390;18.620;2023-03-29T00:52:24;9.13;;;4.00;;
18114;SDS011;9184;54.390;18.620;2023-03-29T00:53:00;9.60;;;4.60;;
18114;SDS011;9184;54.390;18.620;2023-03-29T00:53:32;11.75;;;5.00;;
18114;SDS011;9184;54.390;18.620;2023-03-29T00:54:04;8.57;;;4.60;;
18114;SDS011;9184;54.390;18.620;2023-03-29T00:54:37;10.32;;;4.38;;
18114;SDS011;9184;54.390;18.620;2023-03-29T00:55:09;9.23;;;4.88;;
18114;SDS011;9184;54.390;18.620;2023-03-29T00:55:42;9.82;;;5.30;;
18114;SDS011;9184;54.390;18.620;2023-03-29T00:56:16;12.73;;;4.45;;
18114;SDS011;9184;54.390;18.620;2023-03-29T00:56:49;7.88;;;4.60;;
18114;SDS011;9184;54.390;18.620;2023-03-29T00:57:21;8.48;;;4.43;;
18114;SDS011;9184;54.390;18.620;2023-03-29T00:57:51;8.53;;;4.77;;
18114;SDS011;9184;54.390;18.620;2023-03-29T00:58:25;10.88;;;4.63;;
18114;SDS011;9184;54.390;18.620;2023-03-29T00:58:59;7.20;;;3.88;;
18114;SDS011;9184;54.390;18.620;2023-03-29T00:59:31;8.70;;;4.55;;
18114;SDS011;9184;54.390;18.620;2023-03-29T01:00:05;11.57;;;5.10;;
18114;SDS011;9184;54.390;18.620;2023-03-29T01:00:40;8.50;;;4.20;;
18114;SDS011;9184;54.390;18.620;2023-03-29T01:01:13;11.25;;;4.90;;
18114;SDS011;9184;54.390;18.620;2023-03-29T01:01:49;10.65;;;4.80;;
18114;SDS011;9184;54.390;18.620;2023-03-29T01:02:24;7.70;;;4.28;;
18114;SDS011;9184;54.390;18.620;2023-03-29T01:02:57;10.55;;;4.47;;
18114;SDS011;9184;54.390;18.620;2023-03-29T01:03:29;12.93;;;4.90;;
18114;SDS011;9184;54.390;18.620;2023-03-29T01:04:03;11.23;;;4.57;;
18114;SDS011;9184;54.390;18.620;2023-03-29T01:04:38;7.68;;;4.63;;
18114;SDS011;9184;54.390;18.620;2023-03-29T01:05:12;8.80;;;4.38;;
18114;SDS011;9184;54.390;18.620;2023-03-29T01:05:45;12.90;;;4.88;;
18114;SDS011;9184;54.390;18.620;2023-03-29T01:06:18;7.40;;;4.10;;
18114;SDS011;9184;54.390;18.620;2023-03-29T01:06:52;15.82;;;5.53;;
18114;SDS011;9184;54.390;18.620;2023-03-29T01:07:27;8.48;;;4.55;;
18114;SDS011;9184;54.390;18.620;2023-03-29T01:08:02;10.48;;;4.65;;
18114;SDS011;9184;54.390;18.620;2023-03-29T01:08:34;10.18;;;4.35;;
18114;SDS011;9184;54.390;18.620;2023-03-29T01:09:07;11.77;;;4.80;;
18114;SDS011;9184;54.390;18.620;2023-03-29T01:09:40;10.63;;;5.05;;
18114;SDS011;9184;54.390;18.620;2023-03-29T01:10:13;12.35;;;3.83;;
18114;SDS011;9184;54.390;18.620;2023-03-29T01:10:46;11.38;;;4.47;;
18114;SDS011;9184;54.390;18.620;2023-03-29T01:11:19;10.63;;;4.75;;
18114;SDS011;9184;54.390;18.620;2023-03-29T01:11:52;16.50;;;4.60;;
18114;SDS011;9184;54.390;18.620;2023-03-29T01:12:25;10.43;;;3.90;;
18114;SDS011;9184;54.390;18.620;2023-03-29T01:12:59;10.40;;;4.78;;
18114;SDS011;9184;54.390;18.620;2023-03-29T01:13:32;9.88;;;4.65;;
18114;SDS011;9184;54.390;18.620;2023-03-29T01:14:05;10.63;;;4.93;;
18114;SDS011;9184;54.390;18.620;2023-03-29T01:14:37;10.88;;;4.82;;
18114;SDS011;9184;54.390;18.620;2023-03-29T01:15:09;10.80;;;4.80;;
18114;SDS011;9184;54.390;18.620;2023-03-29T01:15:42;8.90;;;4.50;;
18114;SDS011;9184;54.390;18.620;2023-03-29T01:16:15;10.52;;;4.72;;
18114;SDS011;9184;54.390;18.620;2023-03-29T01:16:47;10.98;;;4.25;;
18114;SDS011;9184;54.390;18.620;2023-03-29T01:17:19;8.73;;;4.85;;
18114;SDS011;9184;54.390;18.620;2023-03-29T01:17:51;11.38;;;5.03;;
18114;SDS011;9184;54.390;18.620;2023-03-29T01:18:22;8.65;;;4.40;;
18114;SDS011;9184;54.390;18.620;2023-03-29T01:18:54;12.35;;;5.18;;
18114;SDS011;9184;54.390;18.620;2023-03-29T01:19:28;11.23;;;4.97;;
18114;SDS011;9184;54.390;18.620;2023-03-29T01:20:02;8.13;;;4.75;;
18114;SDS011;9184;54.390;18.620;2023-03-29T01:20:45;12.20;;;4.80;;
18114;SDS011;9184;54.390;18.620;2023-03-29T01:21:20;8.35;;;4.70;;
18114;SDS011;9184;54.390;18.620;2023-03-29T01:21:54;17.08;;;5.63;;
18114;SDS011;9184;54.390;18.620;2023-03-29T01:22:28;10.20;;;4.43;;
18114;SDS011;9184;54.390;18.620;2023-03-29T01:23:04;9.40;;;4.53;;
18114;SDS011;9184;54.390;18.620;2023-03-29T01:23:46;9.40;;;4.72;;
18114;SDS011;9184;54.390;18.620;2023-03-29T01:24:27;8.43;;;4.93;;
18114;SDS011;9184;54.390;18.620;2023-03-29T01:25:02;10.85;;;4.72;;
18114;SDS011;9184;54.390;18.620;2023-03-29T01:25:42;8.15;;;4.40;;
18114;SDS011;9184;54.390;18.620;2023-03-29T01:26:17;9.27;;;4.40;;
18114;SDS011;9184;54.390;18.620;2023-03-29T01:26:52;11.82;;;4.72;;
18114;SDS011;9184;54.390;18.620;2023-03-29T01:28:25;6.05;;;3.97;;
18114;SDS011;9184;54.390;18.620;2023-03-29T01:28:59;10.57;;;4.43;;
18114;SDS011;9184;54.390;18.620;2023-03-29T01:29:32;9.68;;;4.75;;
18114;SDS011;9184;54.390;18.620;2023-03-29T01:30:04;9.65;;;4.38;;
18114;SDS011;9184;54.390;18.620;2023-03-29T01:30:39;9.80;;;4.65;;
18114;SDS011;9184;54.390;18.620;2023-03-29T01:31:12;10.32;;;4.90;;
18114;SDS011;9184;54.390;18.620;2023-03-29T01:31:46;7.85;;;4.60;;
18114;SDS011;9184;54.390;18.620;2023-03-29T01:32:20;12.95;;;4.55;;
18114;SDS011;9184;54.390;18.620;2023-03-29T01:32:53;8.45;;;4.60;;
18114;SDS011;9184;54.390;18.620;2023-03-29T01:33:29;8.38;;;4.07;;
18114;SDS011;9184;54.390;18.620;2023-03-29T01:34:04;6.50;;;4.18;;
18114;SDS011;9184;54.390;18.620;2023-03-29T01:34:40;9.30;;;4.88;;
18114;SDS011;9184;54.390;18.620;2023-03-29T01:35:13;6.30;;;3.97;;
18114;SDS011;9184;54.390;18.620;2023-03-29T01:35:47;11.02;;;4.63;;
18114;SDS011;9184;54.390;18.620;2023-03-29T01:36:21;12.50;;;5.30;;
18114;SDS011;9184;54.390;18.620;2023-03-29T01:36:55;10.30;;;4.38;;
18114;SDS011;9184;54.390;18.620;2023-03-29T01:37:30;10.38;;;4.85;;
18114;SDS011;9184;54.390;18.620;2023-03-29T01:38:05;7.63;;;3.70;;
18114;SDS011;9184;54.390;18.620;2023-03-29T01:38:38;11.48;;;4.43;;
18114;SDS011;9184;54.390;18.620;2023-03-29T01:39:13;9.38;;;4.90;;
18114;SDS011;9184;54.390;18.620;2023-03-29T01:39:44;7.40;;;4.23;;
18114;SDS011;9184;54.390;18.620;2023-03-29T01:40:15;11.45;;;5.13;;
18114;SDS011;9184;54.390;18.620;2023-03-29T01:40:47;11.07;;;4.80;;
18114;SDS011;9184;54.390;18.620;2023-03-29T01:41:17;10.43;;;4.90;;
18114;SDS011;9184;54.390;18.620;2023-03-29T01:41:51;8.70;;;4.30;;
18114;SDS011;9184;54.390;18.620;2023-03-29T01:42:30;7.78;;;4.32;;
18114;SDS011;9184;54.390;18.620;2023-03-29T01:43:04;10.82;;;4.57;;
18114;SDS011;9184;54.390;18.620;2023-03-29T01:43:42;9.27;;;4.60;;
18114;SDS011;9184;54.390;18.620;2023-03-29T01:44:16;9.40;;;4.47;;
18114;SDS011;9184;54.390;18.620;2023-03-29T01:44:50;13.55;;;4.70;;
18114;SDS011;9184;54.390;18.620;2023-03-29T01:45:29;16.45;;;5.25;;
18114;SDS011;9184;54.390;18.620;2023-03-29T01:46:04;8.32;;;3.95;;
18114;SDS011;9184;54.390;18.620;2023-03-29T01:46:37;10.20;;;4.72;;
18114;SDS011;9184;54.390;18.620;2023-03-29T01:47:09;10.38;;;5.18;;
18114;SDS011;9184;54.390;18.620;2023-03-29T01:47:44;9.52;;;4.63;;
18114;SDS011;9184;54.390;18.620;2023-03-29T01:48:17;5.63;;;4.60;;
18114;SDS011;9184;54.390;18.620;2023-03-29T01:48:49;9.52;;;5.00;;
18114;SDS011;9184;54.390;18.620;2023-03-29T01:49:22;14.45;;;4.55;;
18114;SDS011;9184;54.390;18.620;2023-03-29T01:49:57;8.05;;;4.80;;
18114;SDS011;9184;54.390;18.620;2023-03-29T01:50:34;10.38;;;5.03;;
18114;SDS011;9184;54.390;18.620;2023-03-29T01:51:08;8.00;;;3.88;;
18114;SDS011;9184;54.390;18.620;2023-03-29T01:51:43;9.68;;;4.47;;
18114;SDS011;9184;54.390;18.620;2023-03-29T01:52:19;16.48;;;5.28;;
18114;SDS011;9184;54.390;18.620;2023-03-29T01:52:53;7.28;;;4.15;;
18114;SDS011;9184;54.390;18.620;2023-03-29T01:53:27;8.27;;;4.38;;
18114;SDS011;9184;54.390;18.620;2023-03-29T01:54:00;11.70;;;4.45;;
18114;SDS011;9184;54.390;18.620;2023-03-29T01:54:35;9.48;;;4.68;;
18114;SDS011;9184;54.390;18.620;2023-03-29T01:55:08;8.00;;;4.70;;
18114;SDS011;9184;54.390;18.620;2023-03-29T01:55:42;7.97;;;4.30;;
18114;SDS011;9184;54.390;18.620;2023-03-29T01:56:15;9.15;;;5.18;;
18114;SDS011;9184;54.390;18.620;2023-03-29T01:56:47;7.63;;;5.15;;
18114;SDS011;9184;54.390;18.620;2023-03-29T01:57:19;10.75;;;5.18;;
18114;SDS011;9184;54.390;18.620;2023-03-29T01:57:51;15.07;;;4.47;;
18114;SDS011;9184;54.390;18.620;2023-03-29T01:58:25;8.05;;;4.47;;
18114;SDS011;9184;54.390;18.620;2023-03-29T01:59:00;14.07;;;5.10;;
18114;SDS011;9184;54.390;18.620;2023-03-29T01:59:33;12.75;;;4.78;;
18114;SDS011;9184;54.390;18.620;2023-03-29T02:00:05;13.48;;;5.35;;
18114;SDS011;9184;54.390;18.620;2023-03-29T02:00:39;11.38;;;4.57;;
18114;SDS011;9184;54.390;18.620;2023-03-29T02:01:15;12.30;;;4.95;;
18114;SDS011;9184;54.390;18.620;2023-03-29T02:01:47;14.98;;;5.63;;
18114;SDS011;9184;54.390;18.620;2023-03-29T02:02:18;12.50;;;5.75;;
18114;SDS011;9184;54.390;18.620;2023-03-29T02:02:51;8.38;;;4.57;;
18114;SDS011;9184;54.390;18.620;2023-03-29T02:03:24;9.45;;;4.78;;
18114;SDS011;9184;54.390;18.620;2023-03-29T02:03:56;11.45;;;5.15;;
18114;SDS011;9184;54.390;18.620;2023-03-29T02:04:30;11.18;;;5.38;;
18114;SDS011;9184;54.390;18.620;2023-03-29T02:05:02;8.55;;;4.85;;
18114;SDS011;9184;54.390;18.620;2023-03-29T02:05:33;14.30;;;5.18;;
18114;SDS011;9184;54.390;18.620;2023-03-29T02:06:05;11.75;;;5.40;;
18114;SDS011;9184;54.390;18.620;2023-03-29T02:06:36;13.23;;;4.77;;
18114;SDS011;9184;54.390;18.620;2023-03-29T02:07:07;9.30;;;5.20;;
18114;SDS011;9184;54.390;18.620;2023-03-29T02:07:39;8.80;;;5.00;;
18114;SDS011;9184;54.390;18.620;2023-03-29T02:08:12;10.98;;;4.85;;
18114;SDS011;9184;54.390;18.620;2023-03-29T02:08:44;8.95;;;5.03;;
18114;SDS011;9184;54.390;18.620;2023-03-29T02:09:16;13.60;;;5.50;;
18114;SDS011;9184;54.390;18.620;2023-03-29T02:09:47;10.53;;;4.97;;
18114;SDS011;9184;54.390;18.620;2023-03-29T02:10:18;11.63;;;5.18;;
18114;SDS011;9184;54.390;18.620;2023-03-29T02:10:50;13.98;;;5.90;;
18114;SDS011;9184;54.390;18.620;2023-03-29T02:11:21;11.17;;;5.17;;
18114;SDS011;9184;54.390;18.620;2023-03-29T02:11:52;11.20;;;5.00;;
18114;SDS011;9184;54.390;18.620;2023-03-29T02:12:26;14.70;;;5.45;;
18114;SDS011;9184;54.390;18.620;2023-03-29T02:12:56;14.10;;;4.60;;
18114;SDS011;9184;54.390;18.620;2023-03-29T02:13:27;12.13;;;4.73;;
18114;SDS011;9184;54.390;18.620;2023-03-29T02:14:00;11.30;;;4.90;;
18114;SDS011;9184;54.390;18.620;2023-03-29T02:14:31;10.25;;;4.88;;
18114;SDS011;9184;54.390;18.620;2023-03-29T02:15:01;12.03;;;5.37;;
18114;SDS011;9184;54.390;18.620;2023-03-29T02:15:33;9.98;;;5.10;;
18114;SDS011;9184;54.390;18.620;2023-03-29T02:16:06;10.03;;;5.20;;
18114;SDS011;9184;54.390;18.620;2023-03-29T02:16:37;14.48;;;5.22;;
18114;SDS011;9184;54.390;18.620;2023-03-29T02:17:15;12.10;;;4.55;;
18114;SDS011;9184;54.390;18.620;2023-03-29T02:17:47;13.13;;;4.97;;
18114;SDS011;9184;54.390;18.620;2023-03-29T02:18:18;13.40;;;5.28;;
18114;SDS011;9184;54.390;18.620;2023-03-29T02:18:50;8.80;;;4.63;;
18114;SDS011;9184;54.390;18.620;2023-03-29T02:19:21;9.82;;;4.93;;
18114;SDS011;9184;54.390;18.620;2023-03-29T02:19:54;10.68;;;5.63;;
18114;SDS011;9184;54.390;18.620;2023-03-29T02:20:28;9.88;;;4.85;;
18114;SDS011;9184;54.390;18.620;2023-03-29T02:21:00;9.90;;;5.10;;
18114;SDS011;9184;54.390;18.620;2023-03-29T02:21:32;10.07;;;5.10;;
18114;SDS011;9184;54.390;18.620;2023-03-29T02:22:06;10.20;;;4.65;;
18114;SDS011;9184;54.390;18.620;2023-03-29T02:22:43;10.27;;;5.10;;
18114;SDS011;9184;54.390;18.620;2023-03-29T02:23:16;10.38;;;5.15;;
18114;SDS011;9184;54.390;18.620;2023-03-29T02:23:50;13.05;;;4.95;;
18114;SDS011;9184;54.390;18.620;2023-03-29T02:24:23;16.25;;;5.22;;
18114;SDS011;9184;54.390;18.620;2023-03-29T02:24:55;9.57;;;4.90;;
18114;SDS011;9184;54.390;18.620;2023-03-29T02:25:28;8.02;;;4.80;;
18114;SDS011;9184;54.390;18.620;2023-03-29T02:25:59;9.98;;;5.18;;
18114;SDS011;9184;54.390;18.620;2023-03-29T02:26:31;10.95;;;4.85;;
18114;SDS011;9184;54.390;18.620;2023-03-29T02:27:01;12.30;;;5.23;;
18114;SDS011;9184;54.390;18.620;2023-03-29T02:27:33;9.68;;;5.07;;
18114;SDS011;9184;54.390;18.620;2023-03-29T02:28:06;10.57;;;5.72;;
18114;SDS011;9184;54.390;18.620;2023-03-29T02:28:37;8.00;;;4.63;;
18114;SDS011;9184;54.390;18.620;2023-03-29T02:29:09;9.20;;;5.77;;
18114;SDS011;9184;54.390;18.620;2023-03-29T02:29:41;6.28;;;4.72;;
18114;SDS011;9184;54.390;18.620;2023-03-29T02:30:11;13.53;;;5.50;;
18114;SDS011;9184;54.390;18.620;2023-03-29T02:30:44;11.35;;;5.00;;
18114;SDS011;9184;54.390;18.620;2023-03-29T02:31:20;10.43;;;4.90;;
18114;SDS011;9184;54.390;18.620;2023-03-29T02:31:54;10.80;;;4.88;;
18114;SDS011;9184;54.390;18.620;2023-03-29T02:32:28;7.60;;;4.63;;
18114;SDS011;9184;54.390;18.620;2023-03-29T02:33:03;10.63;;;5.13;;
18114;SDS011;9184;54.390;18.620;2023-03-29T02:33:37;13.00;;;5.43;;
18114;SDS011;9184;54.390;18.620;2023-03-29T02:34:12;10.90;;;4.45;;
18114;SDS011;9184;54.390;18.620;2023-03-29T02:34:47;12.02;;;4.80;;
18114;SDS011;9184;54.390;18.620;2023-03-29T02:35:21;8.20;;;4.82;;
18114;SDS011;9184;54.390;18.620;2023-03-29T02:35:57;11.13;;;4.80;;
18114;SDS011;9184;54.390;18.620;2023-03-29T02:36:31;11.45;;;5.15;;
18114;SDS011;9184;54.390;18.620;2023-03-29T02:37:03;12.93;;;4.95;;
18114;SDS011;9184;54.390;18.620;2023-03-29T02:37:35;8.68;;;4.85;;
18114;SDS011;9184;54.390;18.620;2023-03-29T02:38:10;16.48;;;5.20;;
18114;SDS011;9184;54.390;18.620;2023-03-29T02:38:41;9.25;;;5.20;;
18114;SDS011;9184;54.390;18.620;2023-03-29T02:39:12;11.83;;;5.53;;
18114;SDS011;9184;54.390;18.620;2023-03-29T02:39:45;14.25;;;5.88;;
18114;SDS011;9184;54.390;18.620;2023-03-29T02:40:17;10.95;;;6.13;;
18114;SDS011;9184;54.390;18.620;2023-03-29T02:40:50;9.25;;;4.93;;
18114;SDS011;9184;54.390;18.620;2023-03-29T02:41:21;9.38;;;5.10;;
18114;SDS011;9184;54.390;18.620;2023-03-29T02:41:53;9.27;;;4.93;;
18114;SDS011;9184;54.390;18.620;2023-03-29T02:42:25;14.50;;;5.15;;
18114;SDS011;9184;54.390;18.620;2023-03-29T02:42:55;14.13;;;5.20;;
18114;SDS011;9184;54.390;18.620;2023-03-29T02:43:27;12.63;;;6.07;;
18114;SDS011;9184;54.390;18.620;2023-03-29T02:43:59;14.30;;;6.18;;
18114;SDS011;9184;54.390;18.620;2023-03-29T02:44:34;10.77;;;5.03;;
18114;SDS011;9184;54.390;18.620;2023-03-29T02:45:07;8.73;;;4.75;;
18114;SDS011;9184;54.390;18.620;2023-03-29T02:45:39;12.77;;;5.85;;
18114;SDS011;9184;54.390;18.620;2023-03-29T02:46:10;11.90;;;5.50;;
18114;SDS011;9184;54.390;18.620;2023-03-29T02:46:41;9.43;;;4.72;;
18114;SDS011;9184;54.390;18.620;2023-03-29T02:47:14;10.25;;;4.85;;
18114;SDS011;9184;54.390;18.620;2023-03-29T02:47:47;13.07;;;5.70;;
18114;SDS011;9184;54.390;18.620;2023-03-29T02:48:21;12.55;;;5.78;;
18114;SDS011;9184;54.390;18.620;2023-03-29T02:48:53;9.65;;;5.60;;
18114;SDS011;9184;54.390;18.620;2023-03-29T02:49:24;10.60;;;4.70;;
18114;SDS011;9184;54.390;18.620;2023-03-29T02:49:54;10.97;;;5.53;;
18114;SDS011;9184;54.390;18.620;2023-03-29T02:50:27;11.23;;;5.90;;
18114;SDS011;9184;54.390;18.620;2023-03-29T02:50:59;8.57;;;5.80;;
18114;SDS011;9184;54.390;18.620;2023-03-29T02:51:31;11.65;;;5.30;;
18114;SDS011;9184;54.390;18.620;2023-03-29T02:52:04;10.30;;;5.78;;
18114;SDS011;9184;54.390;18.620;2023-03-29T02:52:37;8.32;;;5.05;;
18114;SDS011;9184;54.390;18.620;2023-03-29T02:53:10;16.08;;;6.80;;
18114;SDS011;9184;54.390;18.620;2023-03-29T02:53:44;9.60;;;5.22;;
18114;SDS011;9184;54.390;18.620;2023-03-29T02:54:17;10.05;;;5.60;;
18114;SDS011;9184;54.390;18.620;2023-03-29T02:54:48;14.27;;;6.45;;
18114;SDS011;9184;54.390;18.620;2023-03-29T02:55:22;10.13;;;5.38;;
18114;SDS011;9184;54.390;18.620;2023-03-29T02:55:53;15.90;;;6.05;;
18114;SDS011;9184;54.390;18.620;2023-03-29T02:56:24;10.27;;;5.40;;
18114;SDS011;9184;54.390;18.620;2023-03-29T02:56:59;15.07;;;6.22;;
18114;SDS011;9184;54.390;18.620;2023-03-29T02:57:29;10.95;;;6.28;;
18114;SDS011;9184;54.390;18.620;2023-03-29T02:58:02;13.23;;;6.32;;
18114;SDS011;9184;54.390;18.620;2023-03-29T02:58:37;16.15;;;6.20;;
18114;SDS011;9184;54.390;18.620;2023-03-29T02:59:07;11.27;;;5.73;;
18114;SDS011;9184;54.390;18.620;2023-03-29T02:59:40;14.38;;;5.85;;
18114;SDS011;9184;54.390;18.620;2023-03-29T03:00:14;15.77;;;6.07;;
18114;SDS011;9184;54.390;18.620;2023-03-29T03:00:49;12.75;;;5.75;;
18114;SDS011;9184;54.390;18.620;2023-03-29T03:01:19;11.37;;;6.13;;
18114;SDS011;9184;54.390;18.620;2023-03-29T03:01:51;12.15;;;5.60;;
18114;SDS011;9184;54.390;18.620;2023-03-29T03:02:24;17.85;;;5.75;;
18114;SDS011;9184;54.390;18.620;2023-03-29T03:02:55;12.00;;;6.28;;
18114;SDS011;9184;54.390;18.620;2023-03-29T03:03:25;9.90;;;5.80;;
18114;SDS011;9184;54.390;18.620;2023-03-29T03:03:58;14.65;;;6.53;;
18114;SDS011;9184;54.390;18.620;2023-03-29T03:04:28;8.27;;;5.67;;
18114;SDS011;9184;54.390;18.620;2023-03-29T03:04:59;20.60;;;6.20;;
18114;SDS011;9184;54.390;18.620;2023-03-29T03:05:31;13.02;;;6.70;;
18114;SDS011;9184;54.390;18.620;2023-03-29T03:06:03;17.30;;;6.78;;
18114;SDS011;9184;54.390;18.620;2023-03-29T03:06:33;15.70;;;7.05;;
18114;SDS011;9184;54.390;18.620;2023-03-29T03:07:05;17.13;;;6.85;;
18114;SDS011;9184;54.390;18.620;2023-03-29T03:07:36;14.10;;;6.37;;
18114;SDS011;9184;54.390;18.620;2023-03-29T03:08:09;12.77;;;6.57;;
18114;SDS011;9184;54.390;18.620;2023-03-29T03:08:41;15.63;;;6.65;;
18114;SDS011;9184;54.390;18.620;2023-03-29T03:09:11;14.63;;;6.30;;
18114;SDS011;9184;54.390;18.620;2023-03-29T03:09:43;12.52;;;5.75;;
18114;SDS011;9184;54.390;18.620;2023-03-29T03:10:15;16.40;;;7.63;;
18114;SDS011;9184;54.390;18.620;2023-03-29T03:10:46;13.13;;;6.33;;
18114;SDS011;9184;54.390;18.620;2023-03-29T03:11:17;10.73;;;6.30;;
18114;SDS011;9184;54.390;18.620;2023-03-29T03:11:49;12.45;;;6.32;;
18114;SDS011;9184;54.390;18.620;2023-03-29T03:12:19;12.57;;;6.63;;
18114;SDS011;9184;54.390;18.620;2023-03-29T03:12:50;11.53;;;6.80;;
18114;SDS011;9184;54.390;18.620;2023-03-29T03:13:21;10.63;;;6.22;;
18114;SDS011;9184;54.390;18.620;2023-03-29T03:13:53;11.27;;;6.10;;
18114;SDS011;9184;54.390;18.620;2023-03-29T03:14:25;15.07;;;6.80;;
18114;SDS011;9184;54.390;18.620;2023-03-29T03:14:59;15.60;;;6.40;;
18114;SDS011;9184;54.390;18.620;2023-03-29T03:15:30;17.50;;;6.45;;
18114;SDS011;9184;54.390;18.620;2023-03-29T03:16:07;15.93;;;5.55;;
18114;SDS011;9184;54.390;18.620;2023-03-29T03:16:38;10.00;;;6.18;;
18114;SDS011;9184;54.390;18.620;2023-03-29T03:17:09;11.73;;;5.80;;
18114;SDS011;9184;54.390;18.620;2023-03-29T03:17:40;16.38;;;6.82;;
18114;SDS011;9184;54.390;18.620;2023-03-29T03:18:15;15.02;;;6.03;;
18114;SDS011;9184;54.390;18.620;2023-03-29T03:18:46;16.07;;;6.43;;